createdAt,value
2019-04-04T00:00:02.303Z,53.34
2019-04-04T00:01:02.305Z,53.16
2019-04-04T00:02:02.328Z,53.25
2019-04-04T00:03:02.350Z,53.44
2019-04-04T00:04:02.293Z,54.21
2019-04-04T00:05:02.322Z,53.82
2019-04-04T00:06:02.346Z,53.63
2019-04-04T00:07:02.357Z,53.25
2019-04-04T00:08:02.432Z,53.16
2019-04-04T00:09:02.671Z,53.63
2019-04-04T00:10:04.125Z,53.53
2019-04-04T00:11:04.053Z,54.02
2019-04-04T00:12:02.345Z,54.21
2019-04-04T00:13:02.379Z,54.21
2019-04-04T00:14:02.532Z,53.92
2019-04-04T00:15:02.387Z,54.11
2019-04-04T00:16:02.985Z,53.82
2019-04-04T00:17:02.430Z,54.02
2019-04-04T00:18:02.427Z,53.99
2019-04-04T00:19:02.435Z,53.92
2019-04-04T00:20:02.450Z,53.89
2019-04-04T00:21:02.739Z,53.82
2019-04-04T00:22:02.956Z,54.37
2019-04-04T00:23:02.462Z,54.11
2019-04-04T00:24:02.447Z,54.49
2019-04-04T00:25:03.513Z,53.82
2019-04-04T00:26:02.508Z,54.08
2019-04-04T00:27:02.453Z,54.47
2019-04-04T00:28:02.469Z,54.37
2019-04-04T00:29:02.491Z,53.99
2019-04-04T00:30:02.482Z,54.27
2019-04-04T00:31:02.490Z,54.18
2019-04-04T00:32:02.555Z,53.99
2019-04-04T00:33:02.512Z,53.99
2019-04-04T00:34:02.516Z,54.18
2019-04-04T00:35:02.545Z,54.56
2019-04-04T00:36:03.253Z,54.47
2019-04-04T00:37:04.460Z,54.66
2019-04-04T00:38:02.588Z,54.66
2019-04-04T00:39:02.587Z,54.66
2019-04-04T00:40:02.581Z,54.56
2019-04-04T00:41:02.580Z,54.56
2019-04-04T00:42:02.625Z,54.75
2019-04-04T00:43:02.636Z,54.56
2019-04-04T00:44:02.607Z,54.66
2019-04-04T00:45:02.631Z,54.75
2019-04-04T00:46:02.585Z,54.56
2019-04-04T00:47:02.627Z,55.13
2019-04-04T00:48:03.052Z,55.42
2019-04-04T00:49:04.591Z,55.04
2019-04-04T00:50:06.098Z,54.47
2019-04-04T00:51:02.674Z,55.04
2019-04-04T00:52:02.646Z,55.32
2019-04-04T00:53:02.696Z,55.11
2019-04-04T00:54:02.652Z,55.32
2019-04-04T00:55:02.661Z,55.68
2019-04-04T00:56:02.688Z,55.23
2019-04-04T00:57:02.710Z,55.30
2019-04-04T00:58:02.727Z,55.32
2019-04-04T00:59:02.685Z,55.32
2019-04-04T01:00:02.703Z,55.68
2019-04-04T01:01:02.705Z,55.30
2019-04-04T01:02:02.707Z,55.96
2019-04-04T01:03:02.735Z,56.06
2019-04-04T01:04:02.786Z,56.35
2019-04-04T01:05:02.749Z,55.49
2019-04-04T01:06:03.601Z,55.87
2019-04-04T01:07:03.022Z,56.16
2019-04-04T01:08:02.746Z,56.06
2019-04-04T01:09:02.764Z,55.87
2019-04-04T01:10:02.822Z,56.25
2019-04-04T01:11:02.834Z,55.96
2019-04-04T01:12:02.777Z,56.16
2019-04-04T01:13:02.889Z,55.87
2019-04-04T01:14:02.838Z,56.06
2019-04-04T01:15:02.820Z,55.96
2019-04-04T01:16:03.383Z,56.16
2019-04-04T01:17:04.162Z,55.68
2019-04-04T01:18:03.991Z,56.16
2019-04-04T01:19:02.827Z,55.87
2019-04-04T01:20:02.964Z,56.16
2019-04-04T01:21:02.824Z,55.87
2019-04-04T01:22:02.838Z,55.40
2019-04-04T01:23:02.839Z,55.58
2019-04-04T01:24:02.851Z,56.06
2019-04-04T01:25:02.883Z,56.63
2019-04-04T01:26:03.508Z,56.54
2019-04-04T01:27:04.121Z,56.06
2019-04-04T01:28:02.877Z,56.54
2019-04-04T01:29:05.619Z,56.35
2019-04-04T01:30:02.887Z,55.58
2019-04-04T01:31:02.930Z,56.25
2019-04-04T01:32:02.947Z,56.63
2019-04-04T01:33:03.776Z,56.06
2019-04-04T01:34:02.941Z,56.04
2019-04-04T01:35:02.931Z,56.32
2019-04-04T01:36:02.979Z,56.04
2019-04-04T01:37:02.943Z,56.51
2019-04-04T01:38:02.956Z,56.70
2019-04-04T01:39:02.956Z,56.70
2019-04-04T01:40:03.016Z,56.70
2019-04-04T01:41:04.414Z,56.51
2019-04-04T01:42:03.003Z,56.70
2019-04-04T01:43:02.978Z,56.23
2019-04-04T01:44:05.197Z,56.51
2019-04-04T01:45:02.983Z,56.32
2019-04-04T01:46:03.001Z,56.32
2019-04-04T01:47:03.024Z,56.32
2019-04-04T01:48:03.018Z,56.60
2019-04-04T01:49:03.014Z,56.51
2019-04-04T01:50:03.020Z,56.70
2019-04-04T01:51:03.020Z,56.51
2019-04-04T01:52:03.043Z,56.51
2019-04-04T01:53:03.064Z,56.51
2019-04-04T01:54:03.099Z,56.80
2019-04-04T01:55:04.034Z,56.70
2019-04-04T01:56:05.974Z,57.09
2019-04-04T01:57:03.065Z,57.09
2019-04-04T01:58:03.110Z,56.60
2019-04-04T01:59:03.121Z,56.70
2019-04-04T02:00:03.082Z,56.60
2019-04-04T02:01:03.092Z,56.51
2019-04-04T02:02:03.102Z,56.70
2019-04-04T02:03:03.107Z,56.89
2019-04-04T02:04:03.321Z,56.99
2019-04-04T02:05:03.129Z,56.89
2019-04-04T02:06:03.130Z,57.09
2019-04-04T02:07:03.127Z,56.89
2019-04-04T02:08:03.136Z,57.09
2019-04-04T02:09:03.620Z,57.37
2019-04-04T02:10:05.096Z,57.56
2019-04-04T02:11:05.226Z,56.89
2019-04-04T02:12:03.178Z,57.37
2019-04-04T02:13:03.175Z,57.18
2019-04-04T02:14:03.165Z,57.46
2019-04-04T02:15:03.203Z,57.37
2019-04-04T02:16:03.210Z,57.75
2019-04-04T02:17:03.193Z,57.56
2019-04-04T02:18:03.197Z,57.75
2019-04-04T02:19:03.211Z,57.75
2019-04-04T02:20:03.229Z,57.28
2019-04-04T02:21:03.228Z,57.46
2019-04-04T02:22:03.259Z,57.46
2019-04-04T02:23:03.226Z,57.37
2019-04-04T02:24:03.230Z,57.37
2019-04-04T02:25:03.824Z,57.46
2019-04-04T02:26:05.130Z,57.56
2019-04-04T02:27:04.921Z,57.56
2019-04-04T02:28:03.277Z,57.46
2019-04-04T02:29:03.269Z,57.56
2019-04-04T02:30:03.287Z,57.56
2019-04-04T02:31:03.292Z,57.34
2019-04-04T02:32:03.282Z,57.24
2019-04-04T02:33:03.299Z,57.34
2019-04-04T02:34:06.208Z,57.06
2019-04-04T02:35:03.326Z,57.43
2019-04-04T02:36:03.353Z,57.43
2019-04-04T02:37:03.326Z,57.43
2019-04-04T02:38:03.314Z,57.53
2019-04-04T02:39:03.314Z,57.34
2019-04-04T02:40:06.045Z,57.92
2019-04-04T02:41:03.325Z,58.11
2019-04-04T02:42:03.370Z,57.92
2019-04-04T02:43:03.350Z,57.34
2019-04-04T02:44:03.361Z,57.34
2019-04-04T02:45:05.507Z,57.53
2019-04-04T02:46:03.388Z,58.11
2019-04-04T02:47:03.417Z,58.11
2019-04-04T02:48:03.381Z,58.01
2019-04-04T02:49:03.456Z,58.20
2019-04-04T02:50:03.387Z,58.01
2019-04-04T02:51:06.862Z,58.01
2019-04-04T02:52:03.442Z,58.20
2019-04-04T02:53:03.421Z,58.20
2019-04-04T02:54:03.433Z,58.11
2019-04-04T02:55:03.447Z,58.11
2019-04-04T02:56:03.728Z,58.48
2019-04-04T02:57:08.169Z,58.39
2019-04-04T02:58:03.451Z,58.20
2019-04-04T02:59:03.474Z,58.01
2019-04-04T03:00:03.475Z,58.01
2019-04-04T03:01:03.494Z,57.92
2019-04-04T03:02:05.735Z,58.20
2019-04-04T03:03:08.215Z,58.11
2019-04-04T03:04:03.475Z,58.01
2019-04-04T03:05:03.508Z,58.58
2019-04-04T03:06:03.492Z,58.48
2019-04-04T03:07:03.551Z,58.48
2019-04-04T03:08:04.576Z,59.12
2019-04-04T03:09:03.503Z,59.16
2019-04-04T03:10:03.516Z,59.06
2019-04-04T03:11:03.535Z,58.97
2019-04-04T03:12:03.531Z,59.06
2019-04-04T03:13:03.557Z,59.16
2019-04-04T03:14:04.537Z,58.87
2019-04-04T03:15:03.559Z,59.34
2019-04-04T03:16:03.551Z,59.22
2019-04-04T03:17:03.557Z,58.97
2019-04-04T03:18:05.247Z,59.22
2019-04-04T03:19:03.593Z,58.94
2019-04-04T03:20:03.682Z,59.22
2019-04-04T03:21:03.591Z,59.99
2019-04-04T03:22:03.594Z,59.03
2019-04-04T03:23:03.601Z,59.06
2019-04-04T03:24:05.995Z,59.25
2019-04-04T03:25:03.638Z,59.22
2019-04-04T03:26:03.609Z,59.60
2019-04-04T03:27:03.613Z,58.94
2019-04-04T03:28:03.656Z,59.03
2019-04-04T03:29:05.535Z,59.31
2019-04-04T03:30:03.677Z,59.41
2019-04-04T03:31:04.100Z,59.31
2019-04-04T03:32:03.644Z,59.41
2019-04-04T03:33:03.692Z,59.79
2019-04-04T03:34:08.846Z,59.41
2019-04-04T03:35:04.166Z,59.03
2019-04-04T03:36:03.744Z,59.99
2019-04-04T03:37:05.938Z,59.22
2019-04-04T03:38:03.784Z,59.99
2019-04-04T03:39:03.679Z,59.41
2019-04-04T03:40:03.694Z,59.31
2019-04-04T03:41:03.737Z,59.41
2019-04-04T03:42:07.135Z,59.03
2019-04-04T03:43:03.701Z,59.51
2019-04-04T03:44:03.768Z,59.51
2019-04-04T03:45:03.719Z,59.89
2019-04-04T03:46:03.760Z,59.51
2019-04-04T03:47:03.723Z,59.70
2019-04-04T03:48:03.750Z,60.36
2019-04-04T03:49:03.745Z,59.60
2019-04-04T03:50:03.761Z,59.89
2019-04-04T03:51:05.223Z,59.99
2019-04-04T03:52:03.764Z,59.70
2019-04-04T03:53:03.783Z,59.51
2019-04-04T03:54:03.785Z,59.60
2019-04-04T03:55:03.795Z,59.70
2019-04-04T03:56:03.812Z,59.89
2019-04-04T03:57:03.815Z,59.89
2019-04-04T03:58:03.809Z,59.79
2019-04-04T03:59:03.829Z,59.70
2019-04-04T04:00:07.156Z,59.41
2019-04-04T04:01:03.826Z,59.51
2019-04-04T04:02:03.831Z,59.70
2019-04-04T04:03:03.836Z,60.27
2019-04-04T04:04:03.847Z,60.27
2019-04-04T04:05:04.029Z,60.27
2019-04-04T04:06:08.387Z,60.36
2019-04-04T04:07:03.877Z,60.36
2019-04-04T04:08:03.861Z,59.89
2019-04-04T04:09:03.871Z,59.89
2019-04-04T04:10:03.876Z,59.89
2019-04-04T04:11:05.895Z,60.08
2019-04-04T04:12:03.965Z,60.17
2019-04-04T04:13:03.916Z,60.08
2019-04-04T04:14:03.925Z,59.99
2019-04-04T04:15:03.908Z,60.08
2019-04-04T04:16:04.068Z,59.89
2019-04-04T04:17:03.898Z,60.84
2019-04-04T04:18:03.896Z,60.65
2019-04-04T04:19:03.909Z,60.84
2019-04-04T04:20:04.850Z,60.36
2019-04-04T04:21:03.922Z,60.62
2019-04-04T04:22:03.932Z,60.55
2019-04-04T04:23:03.975Z,60.33
2019-04-04T04:24:03.981Z,60.72
2019-04-04T04:25:03.989Z,60.75
2019-04-04T04:26:08.243Z,60.33
2019-04-04T04:27:03.994Z,60.52
2019-04-04T04:28:03.967Z,61.04
2019-04-04T04:29:03.978Z,60.72
2019-04-04T04:30:07.216Z,60.84
2019-04-04T04:31:03.985Z,61.19
2019-04-04T04:32:04.004Z,61.19
2019-04-04T04:33:04.046Z,61.48
2019-04-04T04:34:04.023Z,61.29
2019-04-04T04:35:07.371Z,61.32
2019-04-04T04:36:04.005Z,61.00
2019-04-04T04:37:04.039Z,61.00
2019-04-04T04:38:04.063Z,61.41
2019-04-04T04:39:04.047Z,61.29
2019-04-04T04:40:04.052Z,61.19
2019-04-04T04:41:04.040Z,61.41
2019-04-04T04:42:04.048Z,61.29
2019-04-04T04:43:04.054Z,61.48
2019-04-04T04:44:05.581Z,60.94
2019-04-04T04:45:04.098Z,61.19
2019-04-04T04:46:04.085Z,61.38
2019-04-04T04:47:04.073Z,60.75
2019-04-04T04:48:04.100Z,60.72
2019-04-04T04:49:04.319Z,61.29
2019-04-04T04:50:04.124Z,61.38
2019-04-04T04:51:04.110Z,61.19
2019-04-04T04:52:04.178Z,61.29
2019-04-04T04:53:04.145Z,61.48
2019-04-04T04:54:04.317Z,61.48
2019-04-04T04:55:08.039Z,61.48
2019-04-04T04:56:06.405Z,61.67
2019-04-04T04:57:05.073Z,61.57
2019-04-04T04:58:04.341Z,61.57
2019-04-04T04:59:04.212Z,61.10
2019-04-04T05:00:04.851Z,61.41
2019-04-04T05:01:04.343Z,61.22
2019-04-04T05:02:04.182Z,61.10
2019-04-04T05:03:04.310Z,60.91
2019-04-04T05:04:04.650Z,61.00
2019-04-04T05:05:04.655Z,61.10
2019-04-04T05:06:04.881Z,61.22
2019-04-04T05:07:07.169Z,61.41
2019-04-04T05:08:04.318Z,61.22
2019-04-04T05:09:04.492Z,61.04
2019-04-04T05:10:05.071Z,60.65
2019-04-04T05:11:04.356Z,60.55
2019-04-04T05:12:04.719Z,59.89
2019-04-04T05:13:05.563Z,60.27
2019-04-04T05:14:04.557Z,60.27
2019-04-04T05:15:04.560Z,59.89
2019-04-04T05:16:08.887Z,59.89
2019-04-04T05:17:04.915Z,59.92
2019-04-04T05:18:04.853Z,59.53
2019-04-04T05:19:04.620Z,59.34
2019-04-04T05:20:05.601Z,58.29
2019-04-04T05:21:04.341Z,59.16
2019-04-04T05:22:04.282Z,58.29
2019-04-04T05:23:04.395Z,58.04
2019-04-04T05:24:04.571Z,57.94
2019-04-04T05:25:08.368Z,57.37
2019-04-04T05:26:04.313Z,57.56
2019-04-04T05:27:06.104Z,58.23
2019-04-04T05:28:06.196Z,57.56
2019-04-04T05:29:04.862Z,57.37
2019-04-04T05:30:04.426Z,56.63
2019-04-04T05:31:04.456Z,56.73
2019-04-04T05:32:04.352Z,56.35
2019-04-04T05:33:04.954Z,56.25
2019-04-04T05:34:04.851Z,55.58
2019-04-04T05:35:04.854Z,56.25
2019-04-04T05:36:05.301Z,55.58
2019-04-04T05:37:05.081Z,55.77
2019-04-04T05:38:07.441Z,56.25
2019-04-04T05:39:04.863Z,55.96
2019-04-04T05:40:04.927Z,55.90
2019-04-04T05:41:04.471Z,55.32
2019-04-04T05:42:04.432Z,54.56
2019-04-04T05:43:04.879Z,54.66
2019-04-04T05:44:04.543Z,53.99
2019-04-04T05:45:04.456Z,54.37
2019-04-04T05:46:04.476Z,53.73
2019-04-04T05:47:04.440Z,54.21
2019-04-04T05:48:04.454Z,53.99
2019-04-04T05:49:07.925Z,53.16
2019-04-04T05:50:04.505Z,53.53
2019-04-04T05:51:04.490Z,53.44
2019-04-04T05:52:04.483Z,53.34
2019-04-04T05:53:04.963Z,52.87
2019-04-04T05:54:07.145Z,52.70
2019-04-04T05:55:04.566Z,52.32
2019-04-04T05:56:06.355Z,51.56
2019-04-04T05:57:04.533Z,51.17
2019-04-04T05:58:04.529Z,51.84
2019-04-04T05:59:04.533Z,51.65
2019-04-04T06:00:04.592Z,51.27
2019-04-04T06:01:04.554Z,51.07
2019-04-04T06:02:04.601Z,51.56
2019-04-04T06:03:04.700Z,51.17
2019-04-04T06:04:04.713Z,50.98
2019-04-04T06:05:04.633Z,51.27
2019-04-04T06:06:04.683Z,50.70
2019-04-04T06:07:05.016Z,51.36
2019-04-04T06:08:07.856Z,52.06
2019-04-04T06:09:04.648Z,51.29
2019-04-04T06:10:04.642Z,51.36
2019-04-04T06:11:04.696Z,50.70
2019-04-04T06:12:04.675Z,51.27
2019-04-04T06:13:04.688Z,50.79
2019-04-04T06:14:04.653Z,50.41
2019-04-04T06:15:04.831Z,50.62
2019-04-04T06:16:04.939Z,50.52
2019-04-04T06:17:05.118Z,50.24
2019-04-04T06:18:04.714Z,50.34
2019-04-04T06:19:04.715Z,50.43
2019-04-04T06:20:04.737Z,50.52
2019-04-04T06:21:04.729Z,50.34
2019-04-04T06:22:04.773Z,50.52
2019-04-04T06:23:04.738Z,50.24
2019-04-04T06:24:04.756Z,50.24
2019-04-04T06:25:04.759Z,50.21
2019-04-04T06:26:07.438Z,50.43
2019-04-04T06:27:04.841Z,50.60
2019-04-04T06:28:04.803Z,50.31
2019-04-04T06:29:05.792Z,50.31
2019-04-04T06:30:04.843Z,50.12
2019-04-04T06:31:04.846Z,50.52
2019-04-04T06:32:04.826Z,50.41
2019-04-04T06:33:05.119Z,50.60
2019-04-04T06:34:05.897Z,50.72
2019-04-04T06:35:04.883Z,50.24
2019-04-04T06:36:04.853Z,50.31
2019-04-04T06:37:04.897Z,50.70
2019-04-04T06:38:04.902Z,50.79
2019-04-04T06:39:05.680Z,51.36
2019-04-04T06:40:04.907Z,51.36
2019-04-04T06:41:04.911Z,51.36
2019-04-04T06:42:04.942Z,50.89
2019-04-04T06:43:10.642Z,51.36
2019-04-04T06:44:04.938Z,51.46
2019-04-04T06:45:04.976Z,51.27
2019-04-04T06:46:05.019Z,51.27
2019-04-04T06:47:04.950Z,51.17
2019-04-04T06:48:05.009Z,51.17
2019-04-04T06:49:05.095Z,51.46
2019-04-04T06:50:07.009Z,51.27
2019-04-04T06:51:05.012Z,51.17
2019-04-04T06:52:05.021Z,51.56
2019-04-04T06:53:05.025Z,51.65
2019-04-04T06:54:05.033Z,51.53
2019-04-04T06:55:05.041Z,52.13
2019-04-04T06:56:05.063Z,52.70
2019-04-04T06:57:05.031Z,52.61
2019-04-04T06:58:08.347Z,52.42
2019-04-04T06:59:05.088Z,52.22
2019-04-04T07:00:05.059Z,52.32
2019-04-04T07:01:05.067Z,52.61
2019-04-04T07:02:05.405Z,52.42
2019-04-04T07:03:05.121Z,52.29
2019-04-04T07:04:05.126Z,52.67
2019-04-04T07:05:06.330Z,52.29
2019-04-04T07:06:05.144Z,52.29
2019-04-04T07:07:05.141Z,52.77
2019-04-04T07:08:05.127Z,52.77
2019-04-04T07:09:05.136Z,52.87
2019-04-04T07:10:05.160Z,52.58
2019-04-04T07:11:15.524Z,53.37
2019-04-04T07:12:06.747Z,52.99
2019-04-04T07:13:20.480Z,53.06
2019-04-04T07:14:05.170Z,53.25
2019-04-04T07:15:05.197Z,53.63
2019-04-04T07:16:07.867Z,52.96
2019-04-04T07:17:08.400Z,53.18
2019-04-04T07:18:05.224Z,52.89
2019-04-04T07:19:07.682Z,53.28
2019-04-04T07:20:05.215Z,53.28
2019-04-04T07:21:05.239Z,52.80
2019-04-04T07:22:05.249Z,53.37
2019-04-04T07:23:05.250Z,53.37
2019-04-04T07:24:05.259Z,52.99
2019-04-04T07:25:06.552Z,53.37
2019-04-04T07:26:05.271Z,53.37
2019-04-04T07:27:05.263Z,53.18
2019-04-04T07:28:05.272Z,52.70
2019-04-04T07:29:05.295Z,52.42
2019-04-04T07:30:05.311Z,53.18
2019-04-04T07:31:05.290Z,52.99
2019-04-04T07:32:07.200Z,53.28
2019-04-04T07:33:05.292Z,53.08
2019-04-04T07:34:05.301Z,53.18
2019-04-04T07:35:05.338Z,52.80
2019-04-04T07:36:05.323Z,52.89
2019-04-04T07:37:05.358Z,52.70
2019-04-04T07:38:05.360Z,52.70
2019-04-04T07:39:05.367Z,52.70
2019-04-04T07:40:05.373Z,53.28
2019-04-04T07:41:06.086Z,53.08
2019-04-04T07:42:05.394Z,53.08
2019-04-04T07:43:08.390Z,53.30
2019-04-04T07:44:05.381Z,52.32
2019-04-04T07:45:05.429Z,52.70
2019-04-04T07:46:16.071Z,52.51
2019-04-04T07:47:05.411Z,52.61
2019-04-04T07:48:05.448Z,52.70
2019-04-04T07:49:05.428Z,52.42
2019-04-04T07:50:05.458Z,52.22
2019-04-04T07:51:05.469Z,52.32
2019-04-04T07:52:05.463Z,52.32
2019-04-04T07:53:06.552Z,52.92
2019-04-04T07:54:07.386Z,52.34
2019-04-04T07:55:05.468Z,52.44
2019-04-04T07:56:05.474Z,51.97
2019-04-04T07:57:05.509Z,52.54
2019-04-04T07:58:05.490Z,52.44
2019-04-04T07:59:05.516Z,52.54
2019-04-04T08:00:05.501Z,52.73
2019-04-04T08:01:05.508Z,52.44
2019-04-04T08:02:05.580Z,52.34
2019-04-04T08:03:05.517Z,52.44
2019-04-04T08:04:06.830Z,52.54
2019-04-04T08:05:05.610Z,51.87
2019-04-04T08:06:05.570Z,52.54
2019-04-04T08:07:05.569Z,52.34
2019-04-04T08:08:05.629Z,52.73
2019-04-04T08:09:05.571Z,52.34
2019-04-04T08:10:05.598Z,52.06
2019-04-04T08:11:05.602Z,52.15
2019-04-04T08:12:05.624Z,52.06
2019-04-04T08:13:05.643Z,52.66
2019-04-04T08:14:05.679Z,51.99
2019-04-04T08:15:05.654Z,51.03
2019-04-04T08:16:05.649Z,51.03
2019-04-04T08:17:05.645Z,51.22
2019-04-04T08:18:05.654Z,51.79
2019-04-04T08:19:05.738Z,51.61
2019-04-04T08:20:05.689Z,51.13
2019-04-04T08:21:05.926Z,51.03
2019-04-04T08:22:05.837Z,50.74
2019-04-04T08:23:05.683Z,51.25
2019-04-04T08:24:05.693Z,51.25
2019-04-04T08:25:05.706Z,50.67
2019-04-04T08:26:05.735Z,50.20
2019-04-04T08:27:05.709Z,50.29
2019-04-04T08:28:05.788Z,50.67
2019-04-04T08:29:05.789Z,50.38
2019-04-04T08:30:05.758Z,50.10
2019-04-04T08:31:05.750Z,50.29
2019-04-04T08:32:05.766Z,50.00
2019-04-04T08:33:05.799Z,49.52
2019-04-04T08:34:05.765Z,49.24
2019-04-04T08:35:05.773Z,49.91
2019-04-04T08:36:06.666Z,50.03
2019-04-04T08:37:05.867Z,49.33
2019-04-04T08:38:05.834Z,49.52
2019-04-04T08:39:05.843Z,49.33
2019-04-04T08:40:05.842Z,49.71
2019-04-04T08:41:05.852Z,49.36
2019-04-04T08:42:05.879Z,50.03
2019-04-04T08:43:05.860Z,49.65
2019-04-04T08:44:05.903Z,50.12
2019-04-04T08:45:05.889Z,49.55
2019-04-04T08:46:05.905Z,49.55
2019-04-04T08:47:05.898Z,49.74
2019-04-04T08:48:05.899Z,49.74
2019-04-04T08:49:05.951Z,49.26
2019-04-04T08:50:05.926Z,49.38
2019-04-04T08:51:05.957Z,49.67
2019-04-04T08:52:16.139Z,49.65
2019-04-04T08:53:05.944Z,49.74
2019-04-04T08:54:05.961Z,49.74
2019-04-04T08:55:06.011Z,49.67
2019-04-04T08:56:06.016Z,49.48
2019-04-04T08:57:05.980Z,48.90
2019-04-04T08:58:06.073Z,48.71
2019-04-04T08:59:05.996Z,48.80
2019-04-04T09:00:06.022Z,48.71
2019-04-04T09:01:06.011Z,48.13
2019-04-04T09:02:06.081Z,48.33
2019-04-04T09:03:06.035Z,48.52
2019-04-04T09:04:06.044Z,48.52
2019-04-04T09:05:11.897Z,48.61
2019-04-04T09:06:06.076Z,48.13
2019-04-04T09:07:06.087Z,48.13
2019-04-04T09:08:06.089Z,48.71
2019-04-04T09:09:06.101Z,48.33
2019-04-04T09:10:06.089Z,48.61
2019-04-04T09:11:06.177Z,47.56
2019-04-04T09:12:06.171Z,48.13
2019-04-04T09:13:06.196Z,48.52
2019-04-04T09:14:06.138Z,48.13
2019-04-04T09:15:06.143Z,48.43
2019-04-04T09:16:06.170Z,48.52
2019-04-04T09:17:06.164Z,48.61
2019-04-04T09:18:06.151Z,48.61
2019-04-04T09:19:06.175Z,48.61
2019-04-04T09:20:09.232Z,48.43
2019-04-04T09:21:06.242Z,48.13
2019-04-04T09:22:06.242Z,48.33
2019-04-04T09:23:06.268Z,48.33
2019-04-04T09:24:06.226Z,48.23
2019-04-04T09:25:06.206Z,48.13
2019-04-04T09:26:06.505Z,48.43
2019-04-04T09:27:06.232Z,48.23
2019-04-04T09:28:06.247Z,48.33
2019-04-04T09:29:06.296Z,48.43
2019-04-04T09:30:06.294Z,48.80
2019-04-04T09:31:06.291Z,48.23
2019-04-04T09:32:06.323Z,48.52
2019-04-04T09:33:06.284Z,48.04
2019-04-04T09:34:06.319Z,47.75
2019-04-04T09:35:06.302Z,48.13
2019-04-04T09:36:06.315Z,48.33
2019-04-04T09:37:08.671Z,48.13
2019-04-04T09:38:06.341Z,48.33
2019-04-04T09:39:06.342Z,47.75
2019-04-04T09:40:06.366Z,47.75
2019-04-04T09:41:06.374Z,48.33
2019-04-04T09:42:06.418Z,48.04
2019-04-04T09:43:06.390Z,48.43
2019-04-04T09:44:06.507Z,48.43
2019-04-04T09:45:06.402Z,48.43
2019-04-04T09:46:06.404Z,48.71
2019-04-04T09:47:06.438Z,48.61
2019-04-04T09:48:06.436Z,48.23
2019-04-04T09:49:06.443Z,47.66
2019-04-04T09:50:06.436Z,47.27
2019-04-04T09:51:06.440Z,47.37
2019-04-04T09:52:06.502Z,47.37
2019-04-04T09:53:06.512Z,47.27
2019-04-04T09:54:06.470Z,47.46
2019-04-04T09:55:06.472Z,47.37
2019-04-04T09:56:06.497Z,48.13
2019-04-04T09:57:06.485Z,47.56
2019-04-04T09:58:06.532Z,47.17
2019-04-04T09:59:06.522Z,46.89
2019-04-04T10:00:06.505Z,47.06
2019-04-04T10:01:06.873Z,47.34
2019-04-04T10:02:06.534Z,47.63
2019-04-04T10:03:06.591Z,47.25
2019-04-04T10:04:06.594Z,47.44
2019-04-04T10:05:06.862Z,47.66
2019-04-04T10:06:06.622Z,47.56
2019-04-04T10:07:06.586Z,47.27
2019-04-04T10:08:06.608Z,47.34
2019-04-04T10:09:15.619Z,47.66
2019-04-04T10:10:06.611Z,47.66
2019-04-04T10:11:06.698Z,47.46
2019-04-04T10:12:06.683Z,47.37
2019-04-04T10:13:06.624Z,47.53
2019-04-04T10:14:06.640Z,48.52
2019-04-04T10:15:06.653Z,47.56
2019-04-04T10:16:06.659Z,47.37
2019-04-04T10:17:06.719Z,47.08
2019-04-04T10:18:06.658Z,46.79
2019-04-04T10:19:06.672Z,47.08
2019-04-04T10:20:06.731Z,47.17
2019-04-04T10:21:12.091Z,46.31
2019-04-04T10:22:06.747Z,46.31
2019-04-04T10:23:06.748Z,46.79
2019-04-04T10:24:06.776Z,47.08
2019-04-04T10:25:06.738Z,46.89
2019-04-04T10:26:06.771Z,46.70
2019-04-04T10:27:06.748Z,47.66
2019-04-04T10:28:06.760Z,47.37
2019-04-04T10:29:06.813Z,47.27
2019-04-04T10:30:06.772Z,47.08
2019-04-04T10:31:06.790Z,46.60
2019-04-04T10:32:06.806Z,46.79
2019-04-04T10:33:06.826Z,46.91
2019-04-04T10:34:06.848Z,46.03
2019-04-04T10:35:06.855Z,46.14
2019-04-04T10:36:06.865Z,46.05
2019-04-04T10:37:06.847Z,46.14
2019-04-04T10:38:06.855Z,47.10
2019-04-04T10:39:06.901Z,46.62
2019-04-04T10:40:06.875Z,47.01
2019-04-04T10:41:07.267Z,46.43
2019-04-04T10:42:06.895Z,46.72
2019-04-04T10:43:06.913Z,47.68
2019-04-04T10:44:06.904Z,47.20
2019-04-04T10:45:06.998Z,47.97
2019-04-04T10:46:06.920Z,47.49
2019-04-04T10:47:06.920Z,47.58
2019-04-04T10:48:06.938Z,47.13
2019-04-04T10:49:08.314Z,47.22
2019-04-04T10:50:06.989Z,46.74
2019-04-04T10:51:07.205Z,47.01
2019-04-04T10:52:07.000Z,47.61
2019-04-04T10:53:07.017Z,46.94
2019-04-04T10:54:07.015Z,46.36
2019-04-04T10:55:07.020Z,46.55
2019-04-04T10:56:07.047Z,46.17
2019-04-04T10:57:07.017Z,46.17
2019-04-04T10:58:07.043Z,46.45
2019-04-04T10:59:07.046Z,46.65
2019-04-04T11:00:07.050Z,46.17
2019-04-04T11:01:07.107Z,46.45
2019-04-04T11:02:07.113Z,46.55
2019-04-04T11:03:07.079Z,46.36
2019-04-04T11:04:07.087Z,46.17
2019-04-04T11:05:07.149Z,46.36
2019-04-04T11:06:07.122Z,45.98
2019-04-04T11:07:07.156Z,45.98
2019-04-04T11:08:07.110Z,46.07
2019-04-04T11:09:07.135Z,45.52
2019-04-04T11:10:07.141Z,45.32
2019-04-04T11:11:07.168Z,45.71
2019-04-04T11:12:07.156Z,45.71
2019-04-04T11:13:07.201Z,45.42
2019-04-04T11:14:07.190Z,45.23
2019-04-04T11:15:07.223Z,45.23
2019-04-04T11:16:07.183Z,45.32
2019-04-04T11:17:07.211Z,45.23
2019-04-04T11:18:07.231Z,45.32
2019-04-04T11:19:09.648Z,45.14
2019-04-04T11:20:07.259Z,44.27
2019-04-04T11:21:07.283Z,44.17
2019-04-04T11:22:07.260Z,45.04
2019-04-04T11:23:07.489Z,44.84
2019-04-04T11:24:07.269Z,44.94
2019-04-04T11:25:07.283Z,44.94
2019-04-04T11:26:07.364Z,44.94
2019-04-04T11:27:07.298Z,45.04
2019-04-04T11:28:07.335Z,44.65
2019-04-04T11:29:07.342Z,45.04
2019-04-04T11:30:07.393Z,44.94
2019-04-04T11:31:07.357Z,45.14
2019-04-04T11:32:07.345Z,45.23
2019-04-04T11:33:07.429Z,45.04
2019-04-04T11:34:07.388Z,45.14
2019-04-04T11:35:07.474Z,44.75
2019-04-04T11:36:07.438Z,44.84
2019-04-04T11:37:07.418Z,45.14
2019-04-04T11:38:07.495Z,43.98
2019-04-04T11:39:07.411Z,44.08
2019-04-04T11:40:07.472Z,43.79
2019-04-04T11:41:07.441Z,43.50
2019-04-04T11:42:07.478Z,44.17
2019-04-04T11:43:07.504Z,43.98
2019-04-04T11:44:07.462Z,43.79
2019-04-04T11:45:07.616Z,43.21
2019-04-04T11:46:07.511Z,43.60
2019-04-04T11:47:07.479Z,43.12
2019-04-04T11:48:07.527Z,43.02
2019-04-04T11:49:07.535Z,43.02
2019-04-04T11:50:07.566Z,43.31
2019-04-04T11:51:07.587Z,43.31
2019-04-04T11:52:07.551Z,43.31
2019-04-04T11:53:07.559Z,43.31
2019-04-04T11:54:07.556Z,42.54
2019-04-04T11:55:07.621Z,43.31
2019-04-04T11:56:07.600Z,42.35
2019-04-04T11:57:07.619Z,42.64
2019-04-04T11:58:07.597Z,42.18
2019-04-04T11:59:08.259Z,42.27
2019-04-04T12:00:07.699Z,43.23
2019-04-04T12:01:07.636Z,42.47
2019-04-04T12:02:07.667Z,41.60
2019-04-04T12:03:07.668Z,41.70
2019-04-04T12:04:07.651Z,41.79
2019-04-04T12:05:07.685Z,41.41
2019-04-04T12:06:07.691Z,41.60
2019-04-04T12:07:07.679Z,41.50
2019-04-04T12:08:07.694Z,41.12
2019-04-04T12:09:08.580Z,41.60
2019-04-04T12:10:08.278Z,40.83
2019-04-04T12:11:07.716Z,40.93
2019-04-04T12:12:07.796Z,42.37
2019-04-04T12:13:07.773Z,41.79
2019-04-04T12:14:07.819Z,42.08
2019-04-04T12:15:07.831Z,42.27
2019-04-04T12:16:07.834Z,41.60
2019-04-04T12:17:07.846Z,41.60
2019-04-04T12:18:07.821Z,41.79
2019-04-04T12:19:07.833Z,41.89
2019-04-04T12:20:07.822Z,42.47
2019-04-04T12:21:07.869Z,41.60
2019-04-04T12:22:07.837Z,40.93
2019-04-04T12:23:07.832Z,41.31
2019-04-04T12:24:07.871Z,41.60
2019-04-04T12:25:08.111Z,41.99
2019-04-04T12:26:07.901Z,41.50
2019-04-04T12:27:07.861Z,40.73
2019-04-04T12:28:07.910Z,40.73
2019-04-04T12:29:07.943Z,41.22
2019-04-04T12:30:07.908Z,41.12
2019-04-04T12:31:07.974Z,40.25
2019-04-04T12:32:07.990Z,40.45
2019-04-04T12:33:07.936Z,40.73
2019-04-04T12:34:07.953Z,40.73
2019-04-04T12:35:07.977Z,40.73
2019-04-04T12:36:07.970Z,40.83
2019-04-04T12:37:07.995Z,41.12
2019-04-04T12:38:08.054Z,40.73
2019-04-04T12:39:08.046Z,40.95
2019-04-04T12:40:19.763Z,40.83
2019-04-04T12:41:08.005Z,41.05
2019-04-04T12:42:08.098Z,41.05
2019-04-04T12:43:08.025Z,41.05
2019-04-04T12:44:08.046Z,40.85
2019-04-04T12:45:08.099Z,40.73
2019-04-04T12:46:08.226Z,40.85
2019-04-04T12:47:08.083Z,40.66
2019-04-04T12:48:09.231Z,40.76
2019-04-04T12:49:08.092Z,40.56
2019-04-04T12:50:08.173Z,40.56
2019-04-04T12:51:08.115Z,40.76
2019-04-04T12:52:08.135Z,40.66